createdAt,value
2023-12-10T00:00:36.890Z,95.53
2023-12-10T00:01:36.870Z,95.95
2023-12-10T00:02:36.820Z,95.12
2023-12-10T00:03:36.837Z,95.12
2023-12-10T00:04:36.833Z,95.70
2023-12-10T00:05:36.738Z,95.64
2023-12-10T00:06:36.833Z,95.39
2023-12-10T00:07:36.716Z,95.39
2023-12-10T00:08:36.694Z,95.39
2023-12-10T00:09:36.727Z,95.59
2023-12-10T00:10:36.676Z,95.34
2023-12-10T00:11:36.670Z,95.80
2023-12-10T00:12:36.746Z,95.39
2023-12-10T00:13:36.662Z,95.34
2023-12-10T00:14:36.628Z,95.55
2023-12-10T00:15:36.652Z,95.55
2023-12-10T00:16:36.819Z,95.34
2023-12-10T00:17:36.654Z,95.55
2023-12-10T00:18:36.762Z,95.55
2023-12-10T00:19:36.651Z,95.45
2023-12-10T00:20:36.565Z,95.40
2023-12-10T00:21:36.633Z,95.40
2023-12-10T00:22:36.549Z,95.30
2023-12-10T00:23:36.533Z,95.40
2023-12-10T00:24:36.554Z,96.12
2023-12-10T00:25:36.514Z,94.99
2023-12-10T00:26:36.552Z,95.09
2023-12-10T00:27:36.525Z,95.40
2023-12-10T00:28:36.514Z,95.30
2023-12-10T00:29:36.463Z,95.61
2023-12-10T00:30:36.479Z,95.40
2023-12-10T00:31:36.437Z,95.81
2023-12-10T00:32:36.453Z,96.12
2023-12-10T00:33:36.548Z,95.20
2023-12-10T00:34:36.485Z,95.61
2023-12-10T00:35:36.412Z,95.50
2023-12-10T00:36:36.409Z,95.40
2023-12-10T00:37:36.371Z,95.50
2023-12-10T00:38:36.366Z,96.23
2023-12-10T00:39:36.411Z,95.40
2023-12-10T00:40:36.341Z,95.40
2023-12-10T00:41:36.329Z,95.36
2023-12-10T00:42:36.371Z,95.46
2023-12-10T00:43:36.315Z,95.61
2023-12-10T00:44:36.341Z,95.40
2023-12-10T00:45:36.392Z,96.23
2023-12-10T00:46:36.271Z,95.30
2023-12-10T00:47:36.351Z,95.61
2023-12-10T00:48:36.389Z,95.36
2023-12-10T00:49:36.343Z,95.36
2023-12-10T00:50:36.235Z,95.77
2023-12-10T00:51:36.278Z,95.36
2023-12-10T00:52:36.214Z,95.50
2023-12-10T00:53:36.213Z,95.46
2023-12-10T00:54:36.187Z,95.56
2023-12-10T00:55:36.171Z,95.87
2023-12-10T00:56:36.159Z,95.56
2023-12-10T00:57:36.216Z,95.87
2023-12-10T00:58:36.179Z,95.36
2023-12-10T00:59:36.129Z,95.36
2023-12-10T01:00:36.201Z,95.46
2023-12-10T01:01:36.141Z,95.36
2023-12-10T01:02:36.122Z,95.67
2023-12-10T01:03:36.168Z,95.46
2023-12-10T01:04:36.167Z,95.56
2023-12-10T01:05:36.084Z,95.46
2023-12-10T01:06:36.097Z,95.46
2023-12-10T01:07:36.060Z,95.46
2023-12-10T01:08:36.045Z,95.46
2023-12-10T01:09:36.070Z,95.56
2023-12-10T01:10:36.020Z,95.52
2023-12-10T01:11:35.998Z,95.46
2023-12-10T01:12:36.039Z,95.56
2023-12-10T01:13:35.978Z,95.36
2023-12-10T01:14:35.965Z,96.55
2023-12-10T01:15:35.966Z,95.42
2023-12-10T01:16:35.988Z,95.42
2023-12-10T01:17:35.978Z,96.03
2023-12-10T01:18:36.007Z,95.52
2023-12-10T01:19:35.966Z,96.03
2023-12-10T01:20:35.896Z,96.14
2023-12-10T01:21:35.927Z,96.24
2023-12-10T01:22:35.869Z,96.55
2023-12-10T01:23:35.860Z,96.24
2023-12-10T01:24:35.863Z,96.34
2023-12-10T01:25:35.847Z,96.34
2023-12-10T01:26:36.128Z,96.34
2023-12-10T01:27:35.910Z,96.34
2023-12-10T01:28:35.809Z,96.34
2023-12-10T01:29:35.800Z,96.55
2023-12-10T01:30:36.129Z,96.34
2023-12-10T01:31:35.830Z,96.34
2023-12-10T01:32:35.911Z,95.93
2023-12-10T01:33:36.025Z,96.03
2023-12-10T01:34:35.958Z,96.34
2023-12-10T01:35:35.979Z,96.03
2023-12-10T01:36:35.748Z,96.03
2023-12-10T01:37:35.741Z,96.24
2023-12-10T01:38:35.707Z,96.03
2023-12-10T01:39:35.733Z,96.24
2023-12-10T01:40:35.695Z,96.03
2023-12-10T01:41:35.666Z,96.03
2023-12-10T01:42:35.723Z,96.24
2023-12-10T01:43:35.639Z,96.14
2023-12-10T01:44:35.650Z,96.24
2023-12-10T01:45:35.657Z,96.24
2023-12-10T01:46:35.613Z,96.03
2023-12-10T01:47:35.628Z,96.24
2023-12-10T01:48:35.747Z,96.14
2023-12-10T01:49:35.647Z,96.34
2023-12-10T01:50:35.586Z,96.14
2023-12-10T01:51:35.622Z,96.14
2023-12-10T01:52:35.539Z,96.14
2023-12-10T01:53:35.527Z,96.14
2023-12-10T01:54:35.575Z,96.09
2023-12-10T01:55:35.507Z,95.93
2023-12-10T01:56:35.509Z,95.89
2023-12-10T01:57:35.577Z,96.41
2023-12-10T01:58:35.482Z,95.89
2023-12-10T01:59:35.473Z,96.09
2023-12-10T02:00:35.551Z,96.09
2023-12-10T02:01:35.469Z,96.14
2023-12-10T02:02:35.463Z,96.14
2023-12-10T02:03:35.557Z,96.14
2023-12-10T02:04:35.477Z,95.93
2023-12-10T02:05:35.528Z,95.93
2023-12-10T02:06:35.507Z,95.89
2023-12-10T02:07:35.366Z,96.09
2023-12-10T02:08:35.380Z,96.14
2023-12-10T02:09:35.393Z,96.03
2023-12-10T02:10:35.342Z,95.93
2023-12-10T02:11:35.333Z,95.93
2023-12-10T02:12:35.380Z,96.30
2023-12-10T02:13:35.325Z,95.93
2023-12-10T02:14:35.296Z,95.93
2023-12-10T02:15:35.316Z,95.93
2023-12-10T02:16:35.291Z,96.24
2023-12-10T02:17:35.342Z,96.14
2023-12-10T02:18:35.307Z,96.03
2023-12-10T02:19:35.323Z,96.03
2023-12-10T02:20:35.249Z,96.03
2023-12-10T02:21:35.227Z,96.14
2023-12-10T02:22:35.216Z,96.55
2023-12-10T02:23:35.188Z,96.14
2023-12-10T02:24:35.230Z,96.34
2023-12-10T02:25:35.172Z,95.93
2023-12-10T02:26:35.167Z,96.24
2023-12-10T02:27:35.179Z,95.93
2023-12-10T02:28:35.136Z,96.24
2023-12-10T02:29:35.122Z,95.78
2023-12-10T02:30:35.188Z,96.20
2023-12-10T02:31:35.121Z,96.30
2023-12-10T02:32:35.127Z,96.09
2023-12-10T02:33:35.314Z,96.20
2023-12-10T02:34:35.156Z,95.99
2023-12-10T02:35:35.060Z,96.41
2023-12-10T02:36:35.150Z,96.24
2023-12-10T02:37:35.049Z,95.99
2023-12-10T02:38:35.024Z,95.99
2023-12-10T02:39:35.066Z,96.09
2023-12-10T02:40:35.037Z,96.20
2023-12-10T02:41:35.007Z,96.30
2023-12-10T02:42:35.004Z,95.99
2023-12-10T02:43:34.982Z,96.20
2023-12-10T02:44:34.966Z,96.30
2023-12-10T02:45:34.988Z,95.37
2023-12-10T02:46:34.941Z,95.27
2023-12-10T02:47:34.945Z,95.27
2023-12-10T02:48:35.037Z,95.27
2023-12-10T02:49:34.990Z,95.27
2023-12-10T02:50:34.926Z,95.64
2023-12-10T02:51:34.944Z,95.78
2023-12-10T02:52:34.890Z,95.48
2023-12-10T02:53:34.863Z,95.17
2023-12-10T02:54:34.888Z,96.61
2023-12-10T02:55:34.842Z,95.06
2023-12-10T02:56:34.848Z,95.58
2023-12-10T02:57:34.988Z,95.37
2023-12-10T02:58:34.802Z,95.48
2023-12-10T02:59:34.821Z,95.27
2023-12-10T03:00:34.827Z,95.17
2023-12-10T03:01:34.801Z,95.48
2023-12-10T03:02:34.850Z,95.27
2023-12-10T03:03:34.806Z,95.62
2023-12-10T03:04:34.813Z,95.58
2023-12-10T03:05:34.732Z,95.37
2023-12-10T03:06:34.717Z,95.58
2023-12-10T03:07:43.700Z,95.06
2023-12-10T03:08:34.703Z,95.37
2023-12-10T03:09:34.756Z,95.48
2023-12-10T03:10:34.673Z,95.58
2023-12-10T03:11:34.665Z,95.62
2023-12-10T03:12:34.770Z,96.61
2023-12-10T03:13:34.674Z,95.62
2023-12-10T03:14:34.641Z,95.52
2023-12-10T03:15:34.649Z,95.48
2023-12-10T03:16:34.620Z,95.27
2023-12-10T03:17:34.987Z,95.37
2023-12-10T03:18:34.752Z,95.48
2023-12-10T03:19:34.624Z,95.37
2023-12-10T03:20:34.587Z,95.10
2023-12-10T03:21:34.576Z,95.27
2023-12-10T03:22:34.556Z,95.48
2023-12-10T03:23:34.553Z,95.17
2023-12-10T03:24:34.571Z,95.48
2023-12-10T03:25:34.517Z,95.78
2023-12-10T03:26:34.500Z,95.52
2023-12-10T03:27:34.534Z,95.78
2023-12-10T03:28:34.531Z,95.17
2023-12-10T03:29:34.472Z,95.78
2023-12-10T03:30:34.480Z,95.27
2023-12-10T03:31:34.459Z,95.31
2023-12-10T03:32:34.471Z,95.27
2023-12-10T03:33:34.496Z,95.27
2023-12-10T03:34:34.537Z,95.48
2023-12-10T03:35:34.394Z,95.48
2023-12-10T03:36:34.451Z,95.06
2023-12-10T03:37:34.371Z,95.00
2023-12-10T03:38:34.365Z,94.96
2023-12-10T03:39:34.403Z,94.90
2023-12-10T03:40:34.359Z,95.17
2023-12-10T03:41:34.345Z,95.17
2023-12-10T03:42:34.448Z,94.85
2023-12-10T03:43:34.311Z,95.99
2023-12-10T03:44:34.299Z,94.76
2023-12-10T03:45:34.315Z,94.65
2023-12-10T03:46:34.294Z,94.85
2023-12-10T03:47:34.299Z,94.85
2023-12-10T03:48:34.320Z,95.10
2023-12-10T03:49:34.314Z,94.76
2023-12-10T03:50:34.238Z,94.76
2023-12-10T03:51:34.267Z,94.85
2023-12-10T03:52:34.272Z,94.76
2023-12-10T03:53:34.195Z,95.06
2023-12-10T03:54:34.225Z,95.06
2023-12-10T03:55:34.208Z,95.06
2023-12-10T03:56:34.163Z,95.17
2023-12-10T03:57:34.236Z,94.96
2023-12-10T03:58:34.145Z,95.10
2023-12-10T03:59:34.141Z,95.48
2023-12-10T04:00:34.378Z,94.65
2023-12-10T04:01:34.177Z,95.10
2023-12-10T04:02:34.123Z,94.96
2023-12-10T04:03:34.127Z,95.37
2023-12-10T04:04:34.094Z,95.37
2023-12-10T04:05:34.110Z,94.96
2023-12-10T04:06:34.094Z,94.96
2023-12-10T04:07:34.048Z,94.85
2023-12-10T04:08:34.047Z,94.85
2023-12-10T04:09:34.077Z,95.27
2023-12-10T04:10:34.016Z,95.00
2023-12-10T04:11:34.017Z,94.65
2023-12-10T04:12:34.046Z,94.96
2023-12-10T04:13:33.991Z,95.17
2023-12-10T04:14:33.964Z,95.06
2023-12-10T04:15:33.989Z,94.90
2023-12-10T04:16:33.938Z,95.42
2023-12-10T04:17:34.042Z,95.42
2023-12-10T04:18:34.257Z,94.76
2023-12-10T04:19:34.061Z,94.80
2023-12-10T04:20:33.910Z,94.76
2023-12-10T04:21:33.951Z,94.76
2023-12-10T04:22:33.884Z,94.85
2023-12-10T04:23:33.875Z,95.06
2023-12-10T04:24:33.992Z,95.06
2023-12-10T04:25:33.850Z,94.85
2023-12-10T04:26:33.829Z,95.00
2023-12-10T04:27:33.920Z,95.21
2023-12-10T04:28:33.819Z,94.96
2023-12-10T04:29:33.789Z,94.76
2023-12-10T04:30:33.827Z,94.80
2023-12-10T04:31:33.776Z,95.62
2023-12-10T04:32:33.917Z,95.06
2023-12-10T04:33:33.821Z,95.48
2023-12-10T04:34:33.804Z,94.76
2023-12-10T04:35:33.730Z,94.96
2023-12-10T04:36:33.764Z,94.76
2023-12-10T04:37:33.717Z,94.76
2023-12-10T04:38:33.698Z,94.70
2023-12-10T04:39:33.774Z,94.90
2023-12-10T04:40:33.680Z,95.00
2023-12-10T04:41:33.692Z,95.00
2023-12-10T04:42:33.755Z,95.10
2023-12-10T04:43:33.680Z,94.70
2023-12-10T04:44:33.629Z,96.34
2023-12-10T04:45:33.646Z,95.52
2023-12-10T04:46:33.620Z,95.10
2023-12-10T04:47:33.646Z,94.80
2023-12-10T04:48:33.830Z,95.10
2023-12-10T04:49:33.709Z,95.21
2023-12-10T04:50:33.581Z,95.21
2023-12-10T04:51:33.607Z,95.00
2023-12-10T04:52:33.542Z,95.00
2023-12-10T04:53:33.537Z,94.90
2023-12-10T04:54:33.554Z,95.21
2023-12-10T04:55:33.519Z,94.70
2023-12-10T04:56:33.494Z,95.68
2023-12-10T04:57:33.556Z,94.80
2023-12-10T04:58:33.484Z,94.80
2023-12-10T04:59:33.482Z,95.21
2023-12-10T05:00:33.604Z,95.21
2023-12-10T05:01:33.457Z,95.10
2023-12-10T05:02:33.427Z,95.21
2023-12-10T05:03:33.504Z,95.00
2023-12-10T05:04:33.431Z,94.80
2023-12-10T05:05:33.483Z,95.42
2023-12-10T05:06:33.419Z,95.52
2023-12-10T05:07:33.366Z,95.42
2023-12-10T05:08:33.368Z,95.52
2023-12-10T05:09:33.425Z,95.83
2023-12-10T05:10:33.358Z,95.31
2023-12-10T05:11:33.326Z,95.48
2023-12-10T05:12:33.581Z,95.52
2023-12-10T05:13:33.305Z,95.42
2023-12-10T05:14:33.304Z,95.52
2023-12-10T05:15:33.357Z,95.31
2023-12-10T05:16:33.286Z,95.42
2023-12-10T05:17:33.326Z,95.93
2023-12-10T05:18:33.442Z,96.03
2023-12-10T05:19:33.337Z,96.03
2023-12-10T05:20:33.234Z,96.14
2023-12-10T05:21:33.256Z,96.03
2023-12-10T05:22:33.428Z,96.24
2023-12-10T05:23:33.207Z,96.24
2023-12-10T05:24:33.223Z,96.55
2023-12-10T05:25:33.176Z,96.34
2023-12-10T05:26:33.163Z,96.24
2023-12-10T05:27:33.158Z,96.14
2023-12-10T05:28:33.158Z,96.24
2023-12-10T05:29:33.129Z,96.03
2023-12-10T05:30:35.707Z,96.24
2023-12-10T05:31:33.124Z,96.24
2023-12-10T05:32:33.353Z,96.24
2023-12-10T05:33:33.305Z,95.93
2023-12-10T05:34:33.230Z,96.34
2023-12-10T05:35:33.064Z,95.98
2023-12-10T05:36:33.072Z,96.34
2023-12-10T05:37:33.547Z,96.39
2023-12-10T05:38:33.037Z,95.42
2023-12-10T05:39:33.070Z,95.46
2023-12-10T05:40:33.020Z,95.31
2023-12-10T05:41:32.995Z,95.46
2023-12-10T05:42:33.307Z,96.45
2023-12-10T05:43:32.970Z,95.46
2023-12-10T05:44:32.954Z,95.31
2023-12-10T05:45:32.998Z,95.52
2023-12-10T05:46:32.935Z,95.42
2023-12-10T05:47:33.076Z,95.36
2023-12-10T05:48:33.124Z,95.36
2023-12-10T05:49:32.965Z,95.42
2023-12-10T05:50:32.903Z,95.46
2023-12-10T05:51:32.906Z,95.36
2023-12-10T05:52:32.877Z,95.42
2023-12-10T05:53:32.868Z,95.56
2023-12-10T05:54:32.890Z,95.42
2023-12-10T05:55:32.842Z,95.87
2023-12-10T05:56:32.852Z,95.83
2023-12-10T05:57:32.877Z,95.83
2023-12-10T05:58:32.800Z,95.31
2023-12-10T05:59:32.802Z,95.52
2023-12-10T06:00:32.820Z,95.83
2023-12-10T06:01:32.818Z,95.42
2023-12-10T06:02:32.759Z,95.87
2023-12-10T06:03:32.900Z,95.36
2023-12-10T06:04:32.858Z,95.46
2023-12-10T06:05:32.774Z,95.36
2023-12-10T06:06:32.764Z,95.31
2023-12-10T06:07:32.702Z,95.31
2023-12-10T06:08:32.753Z,95.62
2023-12-10T06:09:32.754Z,95.62
2023-12-10T06:10:32.742Z,95.42
2023-12-10T06:11:32.663Z,95.21
2023-12-10T06:12:33.213Z,95.31
2023-12-10T06:13:32.645Z,95.21
2023-12-10T06:14:32.901Z,95.31
2023-12-10T06:15:32.666Z,95.52
2023-12-10T06:16:32.601Z,95.21
2023-12-10T06:17:32.621Z,95.52
2023-12-10T06:18:32.704Z,95.52
2023-12-10T06:19:32.798Z,95.62
2023-12-10T06:20:32.576Z,96.66
2023-12-10T06:21:32.565Z,95.10
2023-12-10T06:22:32.656Z,96.03
2023-12-10T06:23:32.534Z,95.42
2023-12-10T06:24:32.569Z,95.21
2023-12-10T06:25:32.507Z,95.52
2023-12-10T06:26:32.492Z,96.03
2023-12-10T06:27:32.533Z,95.42
2023-12-10T06:28:32.478Z,95.42
2023-12-10T06:29:32.472Z,95.62
2023-12-10T06:30:32.474Z,95.42
2023-12-10T06:31:32.441Z,95.42
2023-12-10T06:32:32.861Z,95.00
2023-12-10T06:33:32.585Z,95.21
2023-12-10T06:34:32.512Z,94.90
2023-12-10T06:35:32.439Z,94.90
2023-12-10T06:36:32.465Z,95.42
2023-12-10T06:37:32.373Z,95.52
2023-12-10T06:38:32.372Z,95.00
2023-12-10T06:39:32.374Z,95.00
2023-12-10T06:40:32.337Z,95.00
2023-12-10T06:41:32.350Z,94.90
2023-12-10T06:42:32.734Z,95.10
2023-12-10T06:43:32.318Z,94.90
2023-12-10T06:44:32.307Z,94.90
2023-12-10T06:45:32.333Z,94.90
2023-12-10T06:46:32.267Z,94.90
2023-12-10T06:47:32.302Z,95.10
2023-12-10T06:48:32.383Z,95.42
2023-12-10T06:49:32.424Z,95.62
2023-12-10T06:50:32.275Z,95.42
2023-12-10T06:51:32.358Z,95.52
2023-12-10T06:52:32.237Z,95.10
2023-12-10T06:53:32.193Z,95.46
2023-12-10T06:54:32.186Z,95.42
2023-12-10T06:55:32.170Z,95.52
2023-12-10T06:56:32.154Z,96.34
2023-12-10T06:57:32.240Z,95.52
2023-12-10T06:58:32.171Z,95.42
2023-12-10T06:59:32.123Z,95.31
2023-12-10T07:00:32.240Z,95.31
2023-12-10T07:01:32.632Z,95.25
2023-12-10T07:02:32.263Z,95.46
2023-12-10T07:03:32.166Z,95.25
2023-12-10T07:04:32.065Z,95.36
2023-12-10T07:05:32.235Z,95.25
2023-12-10T07:06:32.094Z,95.31
2023-12-10T07:07:32.058Z,95.36
2023-12-10T07:08:32.023Z,95.25
2023-12-10T07:09:32.082Z,95.36
2023-12-10T07:10:31.998Z,95.36
2023-12-10T07:11:32.011Z,95.36
2023-12-10T07:12:32.415Z,95.25
2023-12-10T07:13:31.967Z,95.31
2023-12-10T07:14:31.969Z,95.36
2023-12-10T07:15:31.972Z,95.46
2023-12-10T07:16:32.005Z,95.25
2023-12-10T07:17:32.058Z,95.36
2023-12-10T07:18:32.004Z,95.15
2023-12-10T07:19:32.069Z,95.15
2023-12-10T07:20:31.921Z,95.67
2023-12-10T07:21:31.990Z,95.77
2023-12-10T07:22:32.210Z,95.87
2023-12-10T07:23:31.875Z,95.67
2023-12-10T07:24:31.903Z,95.36
2023-12-10T07:25:31.856Z,95.46
2023-12-10T07:26:31.819Z,95.36
2023-12-10T07:27:31.861Z,95.87
2023-12-10T07:28:31.800Z,95.67
2023-12-10T07:29:31.802Z,95.61
2023-12-10T07:30:31.854Z,95.46
2023-12-10T07:31:31.770Z,95.67
2023-12-10T07:32:32.214Z,95.81
2023-12-10T07:33:31.886Z,95.71
2023-12-10T07:34:31.940Z,95.61
2023-12-10T07:35:31.717Z,95.92
2023-12-10T07:36:31.754Z,95.87
2023-12-10T07:37:31.713Z,95.46
2023-12-10T07:38:31.692Z,95.92
2023-12-10T07:39:31.749Z,95.61
2023-12-10T07:40:31.678Z,95.92
2023-12-10T07:41:31.666Z,95.61
2023-12-10T07:42:32.040Z,95.87
2023-12-10T07:43:31.647Z,95.36
2023-12-10T07:44:31.650Z,95.77
2023-12-10T07:45:31.637Z,95.87
2023-12-10T07:46:31.596Z,95.40
2023-12-10T07:47:31.642Z,95.50
2023-12-10T07:48:31.720Z,95.87
2023-12-10T07:49:31.659Z,95.61
2023-12-10T07:50:31.579Z,95.40
2023-12-10T07:51:31.568Z,95.36
2023-12-10T07:52:31.963Z,95.40
2023-12-10T07:53:31.538Z,95.36
2023-12-10T07:54:31.546Z,95.46
2023-12-10T07:55:31.535Z,95.67
2023-12-10T07:56:31.487Z,95.67
2023-12-10T07:57:31.510Z,95.87
2023-12-10T07:58:31.500Z,95.67
2023-12-10T07:59:31.468Z,95.36
2023-12-10T08:00:31.582Z,95.71
2023-12-10T08:01:31.571Z,95.40
2023-12-10T08:02:31.817Z,95.77
2023-12-10T08:03:31.486Z,95.46
2023-12-10T08:04:31.442Z,95.77
2023-12-10T08:05:31.411Z,96.44
2023-12-10T08:06:31.426Z,95.50
2023-12-10T08:07:31.393Z,95.87
2023-12-10T08:08:31.357Z,95.40
2023-12-10T08:09:31.448Z,95.77
2023-12-10T08:10:31.342Z,95.50
2023-12-10T08:11:31.354Z,95.56
2023-12-10T08:12:33.442Z,95.40
2023-12-10T08:13:31.312Z,95.36
2023-12-10T08:14:31.963Z,95.36
2023-12-10T08:15:31.328Z,95.46
2023-12-10T08:16:31.286Z,95.36
2023-12-10T08:17:31.302Z,95.36
2023-12-10T08:18:31.314Z,95.36
2023-12-10T08:19:31.380Z,95.56
2023-12-10T08:20:31.231Z,95.56
2023-12-10T08:21:31.236Z,96.28
2023-12-10T08:22:31.728Z,95.46
2023-12-10T08:23:31.189Z,95.36
2023-12-10T08:24:31.211Z,95.56
2023-12-10T08:25:32.457Z,95.36
2023-12-10T08:26:31.175Z,95.36
2023-12-10T08:27:31.252Z,95.36
2023-12-10T08:28:31.184Z,96.39
2023-12-10T08:29:31.126Z,95.36
2023-12-10T08:30:31.152Z,95.31
2023-12-10T08:31:31.115Z,96.18
2023-12-10T08:32:33.359Z,95.46
2023-12-10T08:33:31.324Z,95.56
2023-12-10T08:34:31.128Z,95.56
2023-12-10T08:35:31.071Z,95.52
2023-12-10T08:36:31.087Z,95.98
2023-12-10T08:37:31.053Z,96.18
2023-12-10T08:38:31.035Z,95.67
2023-12-10T08:39:31.041Z,95.87
2023-12-10T08:40:31.016Z,95.87
2023-12-10T08:41:30.994Z,95.36
2023-12-10T08:42:31.277Z,95.36
2023-12-10T08:43:31.024Z,95.46
2023-12-10T08:44:30.993Z,95.56
2023-12-10T08:45:31.251Z,95.56
2023-12-10T08:46:30.934Z,95.31
2023-12-10T08:47:30.948Z,95.67
2023-12-10T08:48:31.054Z,95.36
2023-12-10T08:49:31.053Z,95.31
2023-12-10T08:50:30.901Z,95.36
2023-12-10T08:51:30.950Z,95.46
2023-12-10T08:52:31.408Z,95.98
2023-12-10T08:53:30.857Z,95.36
2023-12-10T08:54:30.902Z,95.83
2023-12-10T08:55:30.867Z,95.56
2023-12-10T08:56:30.827Z,95.36
2023-12-10T08:57:30.841Z,95.36
2023-12-10T08:58:30.826Z,95.31
2023-12-10T08:59:30.829Z,95.42
2023-12-10T09:00:30.867Z,95.62
2023-12-10T09:01:30.845Z,95.31
2023-12-10T09:02:31.112Z,95.31
2023-12-10T09:03:30.850Z,95.42
2023-12-10T09:04:30.807Z,95.31
2023-12-10T09:05:30.812Z,95.52
2023-12-10T09:06:30.794Z,95.52
2023-12-10T09:07:30.732Z,95.31
2023-12-10T09:08:30.711Z,95.42
2023-12-10T09:09:30.695Z,95.42
2023-12-10T09:10:30.781Z,96.14
2023-12-10T09:11:30.721Z,95.42
2023-12-10T09:12:31.206Z,95.31
2023-12-10T09:13:30.655Z,95.42
2023-12-10T09:14:30.625Z,95.31
2023-12-10T09:15:30.693Z,95.52
2023-12-10T09:16:30.607Z,95.31
2023-12-10T09:17:30.722Z,95.31
2023-12-10T09:18:30.753Z,95.31
2023-12-10T09:19:30.745Z,95.52
2023-12-10T09:20:30.591Z,95.27
2023-12-10T09:21:30.650Z,95.31
2023-12-10T09:22:30.869Z,95.52
2023-12-10T09:23:30.596Z,95.52
2023-12-10T09:24:30.655Z,95.31
2023-12-10T09:25:30.638Z,95.83
2023-12-10T09:26:30.558Z,95.31
2023-12-10T09:27:30.558Z,96.14
2023-12-10T09:28:30.469Z,95.27
2023-12-10T09:29:30.469Z,95.27
2023-12-10T09:30:30.543Z,95.37
2023-12-10T09:31:30.517Z,95.27
2023-12-10T09:32:30.782Z,95.31
2023-12-10T09:33:30.570Z,95.31
2023-12-10T09:34:30.499Z,95.52
2023-12-10T09:35:30.429Z,95.31
2023-12-10T09:36:30.470Z,96.24
2023-12-10T09:37:30.363Z,95.31
2023-12-10T09:38:30.359Z,95.31
2023-12-10T09:39:30.386Z,95.42
2023-12-10T09:40:30.348Z,95.31
2023-12-10T09:41:30.341Z,95.31
2023-12-10T09:42:30.626Z,95.31
2023-12-10T09:43:30.306Z,95.52
2023-12-10T09:44:30.301Z,96.30
2023-12-10T09:45:30.323Z,95.42
2023-12-10T09:46:30.265Z,95.17
2023-12-10T09:47:30.383Z,96.41
2023-12-10T09:48:30.342Z,95.42
2023-12-10T09:49:30.438Z,95.48
2023-12-10T09:50:30.244Z,96.30
2023-12-10T09:51:30.265Z,96.34
2023-12-10T09:52:30.457Z,96.34
2023-12-10T09:53:30.212Z,95.27
2023-12-10T09:54:30.988Z,95.48
2023-12-10T09:55:30.179Z,95.83
2023-12-10T09:56:30.169Z,95.27
2023-12-10T09:57:30.169Z,95.48
2023-12-10T09:58:30.139Z,95.78
2023-12-10T09:59:30.148Z,95.83
2023-12-10T10:00:30.124Z,95.78
2023-12-10T10:01:30.247Z,95.48
2023-12-10T10:02:30.380Z,95.31
2023-12-10T10:03:30.258Z,95.27
2023-12-10T10:04:30.282Z,95.48
2023-12-10T10:05:30.234Z,95.42
2023-12-10T10:06:30.079Z,95.48
2023-12-10T10:07:30.037Z,95.58
2023-12-10T10:08:30.048Z,95.27
2023-12-10T10:09:35.494Z,95.99
2023-12-10T10:10:31.053Z,95.48
2023-12-10T10:11:29.986Z,95.48
2023-12-10T10:12:30.339Z,95.27
2023-12-10T10:13:29.985Z,95.27
2023-12-10T10:14:29.976Z,95.06
2023-12-10T10:15:30.089Z,95.27
2023-12-10T10:16:29.933Z,95.37
2023-12-10T10:17:30.484Z,94.96
2023-12-10T10:18:30.009Z,94.85
2023-12-10T10:19:30.068Z,94.85
2023-12-10T10:20:29.885Z,95.37
2023-12-10T10:21:29.933Z,95.17
2023-12-10T10:22:29.917Z,94.85
2023-12-10T10:23:29.860Z,96.09
2023-12-10T10:24:29.872Z,94.85
2023-12-10T10:25:29.829Z,94.96
2023-12-10T10:26:29.826Z,95.37
2023-12-10T10:27:30.121Z,94.96
2023-12-10T10:28:29.802Z,94.96
2023-12-10T10:29:29.793Z,94.85
2023-12-10T10:30:32.370Z,95.27
2023-12-10T10:31:29.758Z,95.06
2023-12-10T10:32:29.792Z,95.17
2023-12-10T10:33:29.833Z,95.17
2023-12-10T10:34:29.825Z,95.48
2023-12-10T10:35:29.761Z,95.48
2023-12-10T10:36:29.830Z,95.17
2023-12-10T10:37:29.992Z,95.17
2023-12-10T10:38:29.687Z,95.27
2023-12-10T10:39:29.718Z,95.48
2023-12-10T10:40:29.668Z,94.65
2023-12-10T10:41:29.693Z,94.96
2023-12-10T10:42:29.685Z,95.27
2023-12-10T10:43:29.639Z,95.02
2023-12-10T10:44:29.625Z,94.92
2023-12-10T10:45:29.676Z,94.96
2023-12-10T10:46:29.653Z,95.02
2023-12-10T10:47:30.037Z,95.12
2023-12-10T10:48:29.718Z,94.92
2023-12-10T10:49:29.672Z,95.43
2023-12-10T10:50:29.595Z,95.02
2023-12-10T10:51:29.640Z,95.23
2023-12-10T10:52:29.538Z,95.02
2023-12-10T10:53:29.534Z,95.12
2023-12-10T10:54:29.535Z,95.23
2023-12-10T10:55:29.514Z,94.87
2023-12-10T10:56:29.499Z,95.08
2023-12-10T10:57:29.745Z,94.67
2023-12-10T10:58:29.636Z,94.87
2023-12-10T10:59:29.485Z,94.87
2023-12-10T11:00:29.625Z,94.46
2023-12-10T11:01:29.486Z,94.77
2023-12-10T11:02:29.446Z,94.15
2023-12-10T11:03:29.594Z,95.18
2023-12-10T11:04:29.541Z,94.05
2023-12-10T11:05:29.492Z,94.36
2023-12-10T11:06:29.635Z,93.90
2023-12-10T11:07:29.701Z,93.70
2023-12-10T11:08:29.396Z,93.54
2023-12-10T11:09:29.379Z,93.18
2023-12-10T11:10:29.400Z,93.70
2023-12-10T11:11:31.541Z,93.80
2023-12-10T11:12:29.388Z,93.80
2023-12-10T11:13:29.324Z,93.04
2023-12-10T11:14:29.318Z,93.29
2023-12-10T11:15:29.354Z,93.39
2023-12-10T11:16:29.273Z,93.55
2023-12-10T11:17:29.678Z,93.59
2023-12-10T11:18:29.309Z,92.97
2023-12-10T11:19:29.343Z,93.08
2023-12-10T11:20:29.242Z,93.18
2023-12-10T11:21:29.262Z,92.93
2023-12-10T11:22:29.201Z,93.24
2023-12-10T11:23:31.084Z,92.52
2023-12-10T11:24:29.220Z,93.04
2023-12-10T11:25:29.166Z,92.73
2023-12-10T11:26:29.153Z,93.04
2023-12-10T11:27:29.359Z,92.52
2023-12-10T11:28:29.140Z,92.63
2023-12-10T11:29:29.128Z,92.73
2023-12-10T11:30:29.258Z,92.52
2023-12-10T11:31:29.124Z,93.04
2023-12-10T11:32:29.415Z,92.42
2023-12-10T11:33:29.256Z,93.14
2023-12-10T11:34:29.174Z,93.04
2023-12-10T11:35:29.058Z,92.63
2023-12-10T11:36:36.547Z,92.32
2023-12-10T11:37:30.327Z,91.91
2023-12-10T11:38:29.031Z,91.80
2023-12-10T11:39:29.055Z,92.01
2023-12-10T11:40:29.019Z,92.21
2023-12-10T11:41:29.010Z,92.83
2023-12-10T11:42:29.254Z,92.83
2023-12-10T11:43:28.978Z,93.04
2023-12-10T11:44:28.961Z,92.63
2023-12-10T11:45:28.999Z,93.24
2023-12-10T11:46:35.162Z,93.59
2023-12-10T11:47:30.285Z,93.59
2023-12-10T11:48:29.009Z,94.05
2023-12-10T11:49:28.941Z,93.90
2023-12-10T11:50:28.895Z,93.70
2023-12-10T11:51:28.936Z,93.84
2023-12-10T11:52:28.893Z,94.15
2023-12-10T11:53:28.852Z,94.98
2023-12-10T11:54:28.880Z,94.52
2023-12-10T11:55:28.865Z,94.56
2023-12-10T11:56:28.834Z,94.52
2023-12-10T11:57:29.039Z,94.98
2023-12-10T11:58:28.814Z,94.77
2023-12-10T11:59:28.780Z,95.08
2023-12-10T12:00:28.839Z,94.98
2023-12-10T12:01:28.863Z,95.08
2023-12-10T12:02:28.755Z,95.08
2023-12-10T12:03:28.799Z,95.18
2023-12-10T12:04:28.868Z,94.56
2023-12-10T12:05:28.777Z,94.67
2023-12-10T12:06:28.770Z,94.77
2023-12-10T12:07:29.429Z,94.87
2023-12-10T12:08:28.689Z,94.98
2023-12-10T12:09:28.699Z,95.59
2023-12-10T12:10:28.679Z,94.67
2023-12-10T12:11:28.680Z,94.87
2023-12-10T12:12:28.672Z,95.12
2023-12-10T12:13:28.691Z,94.98
2023-12-10T12:14:28.619Z,95.12
2023-12-10T12:15:28.638Z,95.12
2023-12-10T12:16:28.601Z,95.08
2023-12-10T12:17:28.965Z,94.81
2023-12-10T12:18:28.985Z,95.02
2023-12-10T12:19:28.754Z,94.81
2023-12-10T12:20:28.566Z,94.92
2023-12-10T12:21:28.593Z,95.23
2023-12-10T12:22:28.537Z,95.33
2023-12-10T12:23:28.522Z,95.28
2023-12-10T12:24:28.862Z,95.23
2023-12-10T12:25:28.512Z,95.43
2023-12-10T12:26:28.502Z,95.43
2023-12-10T12:27:28.852Z,95.53
2023-12-10T12:28:28.476Z,95.64
2023-12-10T12:29:28.464Z,95.43
2023-12-10T12:30:28.455Z,95.74
2023-12-10T12:31:28.427Z,95.12
2023-12-10T12:32:32.158Z,95.23
2023-12-10T12:33:29.539Z,96.15
2023-12-10T12:34:28.460Z,95.43
2023-12-10T12:35:28.384Z,95.43
2023-12-10T12:36:28.410Z,96.25
2023-12-10T12:37:28.653Z,95.43
2023-12-10T12:38:28.351Z,96.05
2023-12-10T12:39:28.370Z,96.25
2023-12-10T12:40:28.334Z,96.25
2023-12-10T12:41:28.316Z,95.33
2023-12-10T12:42:28.338Z,95.43
2023-12-10T12:43:28.330Z,95.43
2023-12-10T12:44:28.298Z,95.43
2023-12-10T12:45:28.433Z,95.43
2023-12-10T12:46:28.305Z,95.23
2023-12-10T12:47:29.070Z,95.37
2023-12-10T12:48:28.287Z,95.27
2023-12-10T12:49:28.325Z,95.78
2023-12-10T12:50:28.228Z,95.33
2023-12-10T12:51:28.334Z,95.23
2023-12-10T12:52:28.207Z,95.37